createdAt,value
2018-09-21T00:01:48.422Z,90.40
2018-09-21T00:04:16.676Z,90.60
2018-09-21T00:06:45.302Z,90.70
2018-09-21T00:09:13.791Z,90.60
2018-09-21T00:11:42.003Z,90.90
2018-09-21T00:14:10.267Z,91.10
2018-09-21T00:16:38.512Z,91.00
2018-09-21T00:19:06.783Z,91.20
2018-09-21T00:21:35.029Z,91.30
2018-09-21T00:24:03.261Z,91.40
2018-09-21T00:26:31.638Z,91.50
2018-09-21T00:28:59.912Z,91.70
2018-09-21T00:31:28.167Z,91.30
2018-09-21T00:33:56.406Z,91.90
2018-09-21T00:36:24.680Z,91.90
2018-09-21T00:38:52.928Z,92.20
2018-09-21T00:41:21.195Z,92.10
2018-09-21T00:43:49.514Z,92.40
2018-09-21T00:46:17.753Z,92.40
2018-09-21T00:48:46.233Z,92.60
2018-09-21T00:51:14.486Z,92.90
2018-09-21T00:53:42.758Z,92.90
2018-09-21T00:56:10.984Z,93.20
2018-09-21T00:58:39.236Z,93.00
2018-09-21T01:01:07.450Z,93.10
2018-09-21T01:03:35.728Z,93.20
2018-09-21T01:06:03.954Z,93.40
2018-09-21T01:08:32.215Z,93.50
2018-09-21T01:11:00.468Z,93.60
2018-09-21T01:13:28.710Z,93.90
2018-09-21T01:15:56.983Z,94.00
2018-09-21T01:18:25.213Z,94.20
2018-09-21T01:20:53.451Z,94.50
2018-09-21T01:23:21.718Z,95.00
2018-09-21T01:25:49.937Z,95.10
2018-09-21T01:28:18.174Z,94.90
2018-09-21T01:30:46.422Z,95.30
2018-09-21T01:33:14.637Z,95.40
2018-09-21T01:35:42.866Z,95.60
2018-09-21T01:38:11.118Z,96.00
2018-09-21T01:40:39.324Z,96.10
2018-09-21T01:43:07.561Z,96.40
2018-09-21T01:45:35.786Z,96.70
2018-09-21T01:48:04.031Z,97.00
2018-09-21T01:50:32.286Z,97.10
2018-09-21T01:53:00.520Z,97.80
2018-09-21T01:55:28.780Z,98.20
2018-09-21T01:57:57.324Z,98.60
2018-09-21T02:00:25.567Z,99.00
2018-09-21T02:02:53.789Z,99.60
2018-09-21T02:05:22.031Z,99.90
2018-09-21T02:07:50.272Z,99.90
2018-09-21T02:10:18.497Z,99.90
2018-09-21T02:12:46.783Z,99.90
2018-09-21T02:15:15.023Z,99.90
2018-09-21T02:17:43.274Z,99.90
2018-09-21T02:20:11.485Z,99.90
2018-09-21T02:22:39.705Z,99.90
2018-09-21T02:25:07.968Z,99.90
2018-09-21T02:27:37.040Z,99.90
2018-09-21T02:30:05.377Z,99.90
2018-09-21T02:32:33.614Z,99.90
2018-09-21T02:35:01.851Z,99.90
2018-09-21T02:37:30.053Z,99.90
2018-09-21T02:39:58.282Z,99.90
2018-09-21T02:42:26.760Z,99.90
2018-09-21T02:44:55.020Z,99.90
2018-09-21T02:47:23.264Z,99.90
2018-09-21T02:49:51.515Z,99.90
2018-09-21T02:52:19.778Z,99.90
2018-09-21T02:54:48.040Z,99.90
2018-09-21T02:57:16.269Z,99.90
2018-09-21T02:59:44.506Z,99.90
2018-09-21T03:02:12.715Z,99.90
2018-09-21T03:04:46.268Z,99.90
2018-09-21T03:07:14.722Z,99.90
2018-09-21T03:09:43.077Z,99.90
2018-09-21T03:12:11.362Z,99.90
2018-09-21T03:14:39.560Z,99.90
2018-09-21T03:17:07.784Z,99.90
2018-09-21T03:19:36.010Z,99.90
2018-09-21T03:22:04.249Z,99.90
2018-09-21T03:24:32.478Z,99.90
2018-09-21T03:27:00.944Z,99.90
2018-09-21T03:29:29.339Z,99.90
2018-09-21T03:31:57.604Z,99.90
2018-09-21T03:34:25.818Z,99.90
2018-09-21T03:36:54.072Z,99.90
2018-09-21T03:39:22.276Z,99.90
2018-09-21T03:41:50.534Z,99.90
2018-09-21T03:44:19.028Z,99.90
2018-09-21T03:46:47.404Z,99.90
2018-09-21T03:49:16.475Z,99.90
2018-09-21T03:51:44.727Z,99.90
2018-09-21T03:54:12.958Z,99.90
2018-09-21T03:56:41.166Z,99.90
2018-09-21T03:59:09.678Z,99.90
2018-09-21T04:01:37.882Z,99.90
2018-09-21T04:04:06.412Z,99.90
2018-09-21T04:06:34.640Z,99.90
2018-09-21T04:09:02.896Z,99.90
2018-09-21T04:11:31.210Z,99.90
2018-09-21T04:13:59.514Z,99.90
2018-09-21T04:16:27.879Z,99.90
2018-09-21T04:18:56.159Z,99.90
2018-09-21T04:21:24.413Z,99.90
2018-09-21T04:23:52.711Z,99.90
2018-09-21T04:26:21.066Z,99.90
2018-09-21T04:28:49.301Z,99.90
2018-09-21T04:31:17.536Z,99.90
2018-09-21T04:33:45.870Z,99.90
2018-09-21T04:36:14.185Z,99.90
2018-09-21T04:38:42.418Z,99.90
2018-09-21T04:41:10.685Z,99.90
2018-09-21T04:43:38.961Z,99.90
2018-09-21T04:46:07.261Z,99.90
2018-09-21T04:48:35.921Z,99.90
2018-09-21T04:51:04.164Z,99.90
2018-09-21T04:53:32.394Z,99.90
2018-09-21T04:56:00.619Z,99.90
2018-09-21T04:58:28.874Z,99.90
2018-09-21T05:00:57.093Z,99.90
2018-09-21T05:03:25.348Z,99.90
2018-09-21T05:05:53.605Z,99.90
2018-09-21T05:08:21.843Z,99.90
2018-09-21T05:10:50.114Z,99.90
2018-09-21T05:13:18.354Z,99.90
2018-09-21T05:15:46.604Z,99.90
2018-09-21T05:18:14.854Z,99.90
2018-09-21T05:20:43.101Z,99.90
2018-09-21T05:23:11.330Z,99.90
2018-09-21T05:25:39.592Z,99.90
2018-09-21T05:28:07.816Z,99.90
2018-09-21T05:30:36.126Z,99.90
2018-09-21T05:33:04.341Z,99.90
2018-09-21T05:35:32.592Z,99.90
2018-09-21T05:38:00.827Z,99.90
2018-09-21T05:40:29.048Z,99.90
2018-09-21T05:42:57.275Z,99.90
2018-09-21T05:45:25.552Z,99.90
2018-09-21T05:47:53.791Z,99.90
2018-09-21T05:50:22.005Z,99.90
2018-09-21T05:52:50.240Z,99.90
2018-09-21T05:55:18.458Z,99.90
2018-09-21T05:57:46.743Z,99.90
2018-09-21T06:00:16.441Z,99.90
2018-09-21T06:02:45.371Z,99.90
2018-09-21T06:05:13.628Z,99.90
2018-09-21T06:07:41.848Z,99.90
2018-09-21T06:10:10.066Z,99.90
2018-09-21T06:12:38.549Z,99.90
2018-09-21T06:15:07.580Z,99.90
2018-09-21T06:17:35.819Z,99.90
2018-09-21T06:20:11.978Z,99.90
2018-09-21T06:22:32.334Z,99.90
2018-09-21T06:25:00.624Z,99.90
2018-09-21T06:27:28.863Z,99.90
2018-09-21T06:29:57.097Z,99.90
2018-09-21T06:32:25.363Z,99.90
2018-09-21T06:34:53.590Z,99.90
2018-09-21T06:37:21.956Z,99.90
2018-09-21T06:39:50.293Z,99.90
2018-09-21T06:42:18.532Z,99.90
2018-09-21T06:44:46.756Z,99.90
2018-09-21T06:47:15.004Z,99.90
2018-09-21T06:49:43.273Z,99.90
2018-09-21T06:52:11.521Z,99.90
2018-09-21T06:54:39.767Z,99.90
2018-09-21T06:57:08.041Z,99.90
2018-09-21T06:59:36.303Z,99.90
2018-09-21T07:02:04.625Z,99.90
2018-09-21T07:04:32.922Z,99.90
2018-09-21T07:07:01.177Z,99.90
2018-09-21T07:09:30.413Z,99.90
2018-09-21T07:11:58.642Z,99.90
2018-09-21T07:14:26.868Z,99.90
2018-09-21T07:16:55.134Z,99.90
2018-09-21T07:19:23.392Z,99.90
2018-09-21T07:21:51.629Z,99.90
2018-09-21T07:24:19.864Z,99.90
2018-09-21T07:26:48.090Z,99.90
2018-09-21T07:29:16.322Z,99.90
2018-09-21T07:31:44.560Z,99.90
2018-09-21T07:34:12.803Z,99.90
2018-09-21T07:36:41.058Z,99.90
2018-09-21T07:39:09.267Z,99.90
2018-09-21T07:41:37.512Z,99.90
2018-09-21T07:44:05.756Z,99.90
2018-09-21T07:46:34.009Z,99.90
2018-09-21T07:49:02.388Z,99.90
2018-09-21T07:51:30.623Z,99.90
2018-09-21T07:53:58.826Z,99.90
2018-09-21T07:56:27.058Z,99.90
2018-09-21T07:58:55.341Z,99.90
2018-09-21T08:01:23.608Z,99.90
2018-09-21T08:03:51.859Z,99.90
2018-09-21T08:06:20.113Z,99.90
2018-09-21T08:08:48.325Z,99.90
2018-09-21T08:11:16.573Z,99.90
2018-09-21T08:13:44.847Z,99.90
2018-09-21T08:16:13.112Z,99.90
2018-09-21T08:18:41.357Z,99.90
2018-09-21T08:21:09.565Z,99.90
2018-09-21T08:23:37.841Z,99.90
2018-09-21T08:26:06.131Z,99.90
2018-09-21T08:28:34.418Z,99.90
2018-09-21T08:31:02.733Z,99.90
2018-09-21T08:33:30.988Z,99.90
2018-09-21T08:35:59.276Z,99.90
2018-09-21T08:41:18.342Z,99.90
2018-09-21T08:43:46.585Z,99.90
2018-09-21T08:46:15.574Z,99.90
2018-09-21T08:48:44.371Z,99.90
2018-09-21T08:51:12.702Z,99.90
2018-09-21T08:53:41.022Z,99.90
2018-09-21T08:56:09.616Z,99.90
2018-09-21T08:58:37.853Z,99.90
2018-09-21T09:01:06.100Z,99.90
2018-09-21T09:03:34.352Z,99.90
2018-09-21T09:06:02.593Z,99.90
2018-09-21T09:08:30.817Z,99.90
2018-09-21T09:10:59.072Z,99.90
2018-09-21T09:13:27.366Z,99.90
2018-09-21T09:15:55.647Z,99.90
2018-09-21T09:18:23.841Z,99.90
2018-09-21T09:20:52.095Z,99.90
2018-09-21T09:23:20.491Z,99.90
2018-09-21T09:25:48.666Z,99.90
2018-09-21T09:28:16.903Z,99.90
2018-09-21T09:30:45.257Z,99.90
2018-09-21T09:33:13.503Z,99.90
2018-09-21T09:35:41.715Z,99.90
2018-09-21T09:38:09.953Z,99.90
2018-09-21T09:40:38.209Z,99.90
2018-09-21T09:43:06.479Z,99.90
2018-09-21T09:45:34.732Z,99.90
2018-09-21T09:48:03.049Z,99.90
2018-09-21T09:50:31.292Z,99.90
2018-09-21T09:52:59.525Z,99.90
2018-09-21T09:55:27.811Z,99.90
2018-09-21T09:57:56.055Z,99.90
2018-09-21T10:00:29.894Z,99.90
2018-09-21T10:02:58.126Z,99.90
2018-09-21T10:05:26.343Z,99.90
2018-09-21T10:07:54.600Z,99.90
2018-09-21T10:10:22.905Z,99.90
2018-09-21T10:12:51.702Z,99.90
2018-09-21T10:15:20.029Z,99.90
2018-09-21T10:17:48.327Z,99.90
2018-09-21T10:20:16.535Z,99.90
2018-09-21T10:22:44.774Z,99.90
2018-09-21T10:25:13.040Z,99.90
2018-09-21T10:27:41.556Z,99.90
2018-09-21T10:30:09.552Z,99.90
2018-09-21T10:32:37.789Z,99.90
2018-09-21T10:35:06.020Z,99.90
2018-09-21T10:37:34.295Z,99.90
2018-09-21T10:40:02.626Z,99.90
2018-09-21T10:42:30.867Z,99.90
2018-09-21T10:44:59.075Z,99.90
2018-09-21T10:47:27.286Z,99.90
2018-09-21T10:49:55.498Z,99.90
2018-09-21T10:52:23.717Z,99.90
2018-09-21T10:54:51.935Z,99.90
2018-09-21T10:57:20.173Z,99.90
2018-09-21T10:59:48.393Z,99.90
2018-09-21T11:02:16.642Z,99.90
2018-09-21T11:04:44.915Z,99.90
2018-09-21T11:07:13.174Z,99.90
2018-09-21T11:09:41.392Z,99.90
2018-09-21T11:12:09.646Z,99.90
2018-09-21T11:14:37.903Z,99.90
2018-09-21T11:17:06.379Z,99.90
2018-09-21T11:19:34.626Z,99.90
2018-09-21T11:22:02.854Z,99.90
2018-09-21T11:24:31.131Z,99.90
2018-09-21T11:26:59.400Z,99.90
2018-09-21T11:29:27.694Z,99.90
2018-09-21T11:31:55.938Z,99.90
2018-09-21T11:34:24.200Z,99.90
2018-09-21T11:36:52.484Z,99.90
2018-09-21T11:39:20.724Z,99.90
2018-09-21T11:41:48.988Z,99.90
2018-09-21T11:44:17.259Z,99.90
2018-09-21T11:46:45.646Z,99.90
2018-09-21T11:49:13.881Z,99.90
2018-09-21T11:51:42.380Z,99.90
2018-09-21T11:54:11.029Z,99.90
2018-09-21T11:56:39.287Z,99.90
2018-09-21T11:59:07.578Z,99.90
2018-09-21T12:01:35.859Z,99.90
2018-09-21T12:04:04.104Z,99.90
2018-09-21T12:06:32.372Z,99.90
2018-09-21T12:09:00.622Z,99.90
2018-09-21T12:11:28.880Z,99.90
2018-09-21T12:13:57.151Z,99.90
2018-09-21T12:16:25.397Z,99.90
2018-09-21T12:18:53.670Z,99.90
2018-09-21T12:21:21.915Z,99.90
2018-09-21T12:23:50.177Z,99.90
2018-09-21T12:26:18.449Z,99.90
2018-09-21T12:28:46.923Z,99.90
2018-09-21T12:31:15.175Z,99.90
2018-09-21T12:33:44.578Z,99.90
2018-09-21T12:36:12.828Z,99.90
2018-09-21T12:38:41.196Z,99.90
2018-09-21T12:41:09.402Z,99.90
2018-09-21T12:43:38.803Z,99.90
2018-09-21T12:46:10.110Z,99.90
2018-09-21T12:48:38.343Z,99.90
2018-09-21T12:51:12.999Z,99.90
2018-09-21T12:53:41.461Z,99.90
2018-09-21T12:56:09.732Z,99.90
2018-09-21T12:58:38.133Z,99.90
2018-09-21T13:01:06.463Z,99.90
2018-09-21T13:03:34.661Z,99.90
2018-09-21T13:06:03.214Z,99.90
2018-09-21T13:08:31.647Z,99.90
2018-09-21T13:10:59.911Z,99.90
2018-09-21T13:13:28.143Z,99.90
2018-09-21T13:15:56.434Z,99.90
2018-09-21T13:18:24.655Z,99.90
2018-09-21T13:20:52.915Z,99.90
2018-09-21T13:23:21.180Z,99.90
2018-09-21T13:25:50.638Z,99.90
2018-09-21T13:28:18.886Z,99.90
2018-09-21T13:30:47.177Z,99.90
2018-09-21T13:33:15.411Z,99.90
2018-09-21T13:35:43.618Z,99.90
2018-09-21T13:38:11.838Z,99.90
2018-09-21T13:40:40.102Z,99.90
2018-09-21T13:43:08.338Z,99.90
2018-09-21T13:45:36.572Z,99.90
2018-09-21T13:48:04.837Z,99.90
2018-09-21T13:50:33.126Z,99.90
2018-09-21T13:53:01.336Z,99.90
2018-09-21T13:55:29.595Z,99.90
2018-09-21T13:57:57.824Z,99.90
2018-09-21T14:00:26.044Z,99.90
2018-09-21T14:02:55.116Z,99.90
2018-09-21T14:05:23.466Z,99.90
2018-09-21T14:07:51.614Z,99.90
2018-09-21T14:10:19.867Z,99.90
2018-09-21T14:12:49.005Z,99.90
2018-09-21T14:15:17.255Z,99.90
2018-09-21T14:17:45.511Z,99.90
2018-09-21T14:20:13.751Z,99.90
2018-09-21T14:22:42.005Z,99.90
2018-09-21T14:25:10.243Z,99.90
2018-09-21T14:27:38.459Z,99.90
2018-09-21T14:30:06.739Z,99.90
2018-09-21T14:32:34.982Z,99.90
2018-09-21T14:35:03.316Z,99.90
2018-09-21T14:37:31.580Z,98.40
2018-09-21T14:39:59.814Z,97.40
2018-09-21T14:42:28.050Z,96.20
2018-09-21T14:44:56.293Z,96.30
2018-09-21T14:47:24.510Z,96.70
2018-09-21T14:49:52.764Z,93.60
2018-09-21T14:52:21.048Z,91.70
2018-09-21T14:54:49.324Z,94.00
2018-09-21T14:57:17.613Z,92.20
2018-09-21T14:59:45.908Z,91.40
2018-09-21T15:02:14.099Z,90.10
2018-09-21T15:04:42.340Z,87.90
2018-09-21T15:07:10.576Z,85.90
2018-09-21T15:09:38.995Z,81.90
2018-09-21T15:12:07.260Z,81.40
2018-09-21T15:14:35.483Z,75.00
2018-09-21T15:17:03.798Z,76.40
2018-09-21T15:19:32.006Z,74.00
2018-09-21T15:22:00.259Z,72.70
2018-09-21T15:24:28.502Z,69.30
2018-09-21T15:26:56.761Z,69.40
2018-09-21T15:29:24.989Z,67.20
2018-09-21T15:31:53.237Z,70.00
2018-09-21T15:34:21.472Z,70.10
2018-09-21T15:36:49.890Z,68.40
2018-09-21T15:39:18.188Z,69.40
2018-09-21T15:41:46.488Z,67.90
2018-09-21T15:44:14.732Z,67.40
2018-09-21T15:46:42.981Z,68.60
2018-09-21T15:49:11.237Z,68.50
2018-09-21T15:51:40.359Z,70.30
2018-09-21T15:54:08.628Z,69.50
2018-09-21T15:56:36.847Z,70.90
2018-09-21T15:59:05.119Z,69.40
2018-09-21T16:01:33.334Z,66.90
2018-09-21T16:04:01.566Z,66.80
2018-09-21T16:06:32.632Z,69.70
2018-09-21T16:09:01.961Z,69.90
2018-09-21T16:11:30.189Z,69.60
2018-09-21T16:13:58.422Z,71.00
2018-09-21T16:16:26.667Z,70.50
2018-09-21T16:18:54.923Z,69.70
2018-09-21T16:21:23.357Z,69.90
2018-09-21T16:23:51.597Z,69.20
2018-09-21T16:26:19.913Z,68.80
2018-09-21T16:28:48.245Z,70.10
2018-09-21T16:31:16.498Z,69.90
2018-09-21T16:33:44.704Z,71.10
2018-09-21T16:36:13.010Z,74.10
2018-09-21T16:38:41.498Z,75.90
2018-09-21T16:41:09.797Z,75.10
2018-09-21T16:43:38.030Z,75.70
2018-09-21T16:46:06.440Z,74.50
2018-09-21T16:48:35.473Z,75.00
2018-09-21T16:51:03.732Z,74.70
2018-09-21T16:53:31.960Z,74.10
2018-09-21T16:56:00.230Z,74.90
2018-09-21T16:58:28.476Z,75.10
2018-09-21T17:00:56.665Z,77.10
2018-09-21T17:03:25.019Z,75.00
2018-09-21T17:05:53.194Z,74.60
2018-09-21T17:08:21.458Z,75.70
2018-09-21T17:10:49.711Z,76.50
2018-09-21T17:13:17.939Z,76.80
2018-09-21T17:15:46.224Z,77.60
2018-09-21T17:18:14.445Z,76.30
2018-09-21T17:20:42.677Z,78.50
2018-09-21T17:23:10.891Z,78.30
2018-09-21T17:25:39.182Z,78.70
2018-09-21T17:28:07.396Z,78.10
2018-09-21T17:30:35.627Z,75.90
2018-09-21T17:33:04.136Z,76.70
2018-09-21T17:35:32.390Z,77.30
2018-09-21T17:38:00.639Z,77.60
2018-09-21T17:40:28.862Z,77.40
2018-09-21T17:42:57.126Z,80.80
2018-09-21T17:45:25.380Z,77.70
2018-09-21T17:47:53.606Z,78.20
2018-09-21T17:50:21.834Z,78.50
2018-09-21T17:52:50.100Z,79.60
2018-09-21T17:55:18.310Z,80.60
2018-09-21T17:57:46.636Z,78.90
2018-09-21T18:00:14.871Z,79.80
2018-09-21T18:02:43.114Z,80.30
2018-09-21T18:05:11.322Z,80.40
2018-09-21T18:07:39.526Z,80.80
2018-09-21T18:10:07.759Z,82.50
2018-09-21T18:12:36.011Z,82.90
2018-09-21T18:15:04.546Z,82.40
2018-09-21T18:17:32.753Z,83.30
2018-09-21T18:20:00.988Z,83.90
2018-09-21T18:22:29.210Z,83.50
2018-09-21T18:24:57.418Z,84.50
2018-09-21T18:27:26.410Z,84.40
2018-09-21T18:29:54.674Z,85.40
2018-09-21T18:32:23.779Z,85.30
2018-09-21T18:34:52.052Z,86.30
2018-09-21T18:37:20.353Z,87.60
2018-09-21T18:39:48.555Z,86.50
2018-09-21T18:42:16.793Z,86.10
2018-09-21T18:44:45.104Z,87.30
2018-09-21T18:47:13.262Z,86.80
2018-09-21T18:49:41.512Z,87.30
2018-09-21T18:52:09.711Z,84.20
2018-09-21T18:54:37.931Z,86.20
2018-09-21T18:57:06.202Z,94.30
2018-09-21T18:59:34.413Z,99.80
2018-09-21T19:02:02.671Z,99.90
2018-09-21T19:04:30.899Z,99.90
2018-09-21T19:06:59.127Z,99.90
2018-09-21T19:09:27.375Z,99.90
2018-09-21T19:11:55.606Z,99.90
2018-09-21T19:14:23.875Z,99.90
2018-09-21T19:16:52.099Z,99.90
2018-09-21T19:19:20.338Z,99.90
2018-09-21T19:21:48.593Z,99.90
2018-09-21T19:24:16.855Z,99.90
2018-09-21T19:26:45.120Z,99.90
2018-09-21T19:29:13.349Z,99.90
2018-09-21T19:31:41.572Z,99.90
2018-09-21T19:34:09.832Z,99.90
2018-09-21T19:36:38.066Z,99.90
2018-09-21T19:39:09.115Z,99.90
2018-09-21T19:41:38.603Z,99.90
2018-09-21T19:44:06.912Z,99.90
2018-09-21T19:46:35.174Z,99.90
2018-09-21T19:49:03.702Z,99.90
2018-09-21T19:51:31.952Z,99.90
2018-09-21T19:54:00.201Z,99.90
2018-09-21T19:56:28.454Z,99.90
2018-09-21T19:58:56.709Z,99.90
2018-09-21T20:01:24.957Z,99.90
2018-09-21T20:03:53.236Z,99.90
2018-09-21T20:06:21.528Z,99.90
2018-09-21T20:08:49.770Z,99.90
2018-09-21T20:11:18.492Z,99.90
2018-09-21T20:13:46.750Z,99.90
2018-09-21T20:16:15.004Z,99.90
2018-09-21T20:18:44.078Z,99.90
2018-09-21T20:21:12.307Z,99.90
2018-09-21T20:23:40.921Z,99.90
2018-09-21T20:26:09.295Z,99.90
2018-09-21T20:28:38.079Z,99.90
2018-09-21T20:31:11.888Z,99.90
2018-09-21T20:33:40.331Z,99.90
2018-09-21T20:36:08.580Z,99.90
2018-09-21T20:38:36.806Z,99.90
2018-09-21T20:41:05.036Z,99.90
2018-09-21T20:43:33.282Z,99.90
2018-09-21T20:46:01.521Z,99.90
2018-09-21T20:48:29.763Z,99.90
2018-09-21T20:50:58.072Z,99.90
2018-09-21T20:53:28.758Z,99.90
2018-09-21T20:55:56.989Z,99.90
2018-09-21T20:58:25.239Z,99.90
2018-09-21T21:00:53.455Z,99.90
2018-09-21T21:03:21.698Z,99.90
2018-09-21T21:05:50.062Z,99.90
2018-09-21T21:11:10.031Z,99.90
2018-09-21T21:13:38.357Z,99.90
2018-09-21T21:16:06.807Z,99.90
2018-09-21T21:18:35.056Z,99.90
2018-09-21T21:21:11.640Z,99.90
2018-09-21T21:23:40.511Z,99.90
2018-09-21T21:26:18.200Z,99.90
2018-09-21T21:28:46.462Z,99.90
2018-09-21T21:31:14.828Z,99.90
2018-09-21T21:33:43.144Z,99.90
2018-09-21T21:36:13.300Z,99.90
2018-09-21T21:38:41.613Z,99.90
2018-09-21T21:41:10.287Z,99.90
2018-09-21T21:43:42.306Z,99.90
2018-09-21T21:46:10.753Z,99.90
2018-09-21T21:48:38.987Z,99.90
2018-09-21T21:51:07.230Z,99.90
2018-09-21T21:53:35.468Z,99.90
2018-09-21T21:56:03.715Z,99.90
2018-09-21T21:58:31.948Z,99.90
2018-09-21T22:01:06.164Z,99.90
2018-09-21T22:03:34.680Z,99.90
2018-09-21T22:06:02.887Z,99.90
2018-09-21T22:08:31.190Z,99.90
2018-09-21T22:10:59.414Z,99.90
2018-09-21T22:13:33.295Z,99.90
2018-09-21T22:16:01.544Z,99.90
2018-09-21T22:18:29.804Z,99.90
2018-09-21T22:20:58.897Z,99.90
2018-09-21T22:23:27.155Z,99.90
2018-09-21T22:25:55.511Z,99.90
2018-09-21T22:28:23.837Z,99.90
2018-09-21T22:30:52.231Z,99.90
2018-09-21T22:33:20.636Z,99.90
2018-09-21T22:35:49.000Z,99.90
2018-09-21T22:38:17.294Z,99.90
2018-09-21T22:40:45.531Z,99.90
2018-09-21T22:43:13.815Z,99.90
2018-09-21T22:45:42.090Z,99.90
2018-09-21T22:48:10.838Z,99.90
2018-09-21T22:50:39.069Z,99.90
2018-09-21T22:53:07.319Z,99.90
2018-09-21T22:55:35.555Z,99.90
2018-09-21T22:58:03.790Z,99.90
2018-09-21T23:00:32.048Z,99.90
2018-09-21T23:03:00.273Z,99.90
2018-09-21T23:05:28.490Z,99.90
2018-09-21T23:07:56.756Z,99.90
2018-09-21T23:10:25.007Z,99.90
2018-09-21T23:12:53.242Z,99.90
2018-09-21T23:15:21.501Z,99.90
2018-09-21T23:17:49.757Z,99.90
2018-09-21T23:20:18.024Z,99.90
2018-09-21T23:22:46.267Z,99.90
2018-09-21T23:25:14.469Z,99.90
2018-09-21T23:27:42.776Z,99.90
2018-09-21T23:30:11.055Z,99.90
2018-09-21T23:32:39.334Z,99.90
2018-09-21T23:35:07.573Z,99.90
2018-09-21T23:37:35.842Z,99.90
2018-09-21T23:40:04.095Z,99.90
2018-09-21T23:42:32.318Z,99.90
2018-09-21T23:45:00.573Z,99.90
2018-09-21T23:47:28.783Z,99.90
2018-09-21T23:49:57.015Z,99.90
2018-09-21T23:52:25.251Z,99.90
2018-09-21T23:54:53.450Z,99.90
2018-09-21T23:57:21.714Z,99.90
2018-09-21T23:59:49.953Z,99.90
